Time;durP1;ratioP1;P1;durP2;ratioP2;P2;SDS_P1;SDS_P2;PMS_P1;PMS_P2;Temp;Humidity;BMP_temperature;BMP_pressure;BME280_temperature;BME280_humidity;BME280_pressure;Samples;Min_cycle;Max_cycle;Signal;HPM_P1;HPM_P2
2022/04/28 00:01:53;;;;;;;;;;;;;;;8.53;100.00;100480.78;6212613;23;19915;-86
2022/04/28 00:04:18;;;;;;;;;;;;;;;8.50;100.00;100481.56;6212925;23;19911;-86
2022/04/28 00:06:44;;;;;;;;;;;;;;;8.48;100.00;100488.72;6211718;23;20254;-87
2022/04/28 00:09:09;;;;;;;;;;;;;;;8.45;100.00;100484.03;6211786;23;19916;-87
2022/04/28 00:11:35;;;;;;;;;;;;;;;8.46;100.00;100488.34;6211538;23;19916;-87
2022/04/28 00:14:00;;;;;;;;;;;;;;;8.46;100.00;100482.81;6212900;23;19920;-87
2022/04/28 00:16:26;;;;;;;;;;;;;;;8.41;100.00;100476.53;6213287;23;19974;-87
2022/04/28 00:18:51;;;;;;;;;;;;;;;8.41;100.00;100482.06;6213042;23;20246;-87
2022/04/28 00:21:17;;;;;;;;;;;;;;;8.39;100.00;100476.19;6213440;23;20384;-87
2022/04/28 00:23:42;;;;;;;;;;;;;;;8.35;100.00;100474.66;6213665;23;19912;-87
2022/04/28 00:26:07;;;;;;;;;;;;;;;8.34;100.00;100479.38;6213100;23;19912;-86
2022/04/28 00:28:33;;;;;;;;;;;;;;;8.33;100.00;100477.81;6211744;23;19911;-86
2022/04/28 00:30:58;;;;;;;;;;;;;;;8.35;100.00;100469.13;6211239;23;19939;-87
2022/04/28 00:33:24;;;;;;;;;;;;;;;8.34;100.00;100470.31;6209776;23;19908;-86
2022/04/28 00:35:49;;;;;;;;;;;;;;;8.32;100.00;100469.94;6211630;23;19922;-86
2022/04/28 00:38:15;;;;;;;;;;;;;;;8.32;100.00;100470.72;6213167;23;19922;-85
2022/04/28 00:40:40;;;;;;;;;;;;;;;8.33;100.00;100469.50;6213419;23;19983;-86
2022/04/28 00:43:23;;;;;;;;;;;;;;;8.32;100.00;100464.41;6212837;23;19916;-86
2022/04/28 00:45:50;;;;;;;;;;;;;;;8.32;100.00;100469.94;6213368;23;19919;-87
2022/04/28 00:51:01;;;;;;;;;;;;;;;8.33;100.00;100469.50;6212671;23;20357;-87
2022/04/28 00:53:28;;;;;;;;;;;;;;;8.32;100.00;100462.44;6212733;23;19951;-88
2022/04/28 00:55:54;;;;;;;;;;;;;;;8.31;100.00;100471.94;6187678;23;19912;-88
2022/04/28 00:58:19;;;;;;;;;;;;;;;8.30;100.00;100473.13;6187423;23;20013;-87
2022/04/28 01:03:30;;;;;;;;;;;;;;;8.30;100.00;100473.13;6185843;23;20489;-89
2022/04/28 01:05:59;;;;;;;;;;;;;;;8.30;100.00;100467.59;6157041;23;19975;-90
2022/04/28 01:08:25;;;;;;;;;;;;;;;8.33;100.00;100466.75;6154024;23;19956;-90
2022/04/28 01:10:54;;;;;;;;;;;;;;;8.33;99.68;100477.81;6152806;23;19912;-90
2022/04/28 01:13:19;;;;;;;;;;;;;;;8.36;98.65;100474.25;6128156;23;20327;-90
2022/04/28 01:15:51;;;;;;;;;;;;;;;8.37;98.01;100473.03;6149688;23;19916;-89
2022/04/28 01:18:17;;;;;;;;;;;;;;;8.38;97.63;100463.53;6128904;23;19913;-90
2022/04/28 01:20:43;;;;;;;;;;;;;;;8.39;97.22;100470.66;6128965;23;19957;-90
2022/04/28 01:23:08;;;;;;;;;;;;;;;8.35;97.87;100469.91;6127775;23;19912;-85
2022/04/28 01:25:34;;;;;;;;;;;;;;;8.34;97.68;100462.81;6128812;23;19912;-84
2022/04/28 01:28:00;;;;;;;;;;;;;;;8.31;97.41;100463.63;6151257;23;19916;-84
2022/04/28 01:30:25;;;;;;;;;;;;;;;8.29;97.54;100466.00;6152418;23;19916;-84
2022/04/28 01:32:56;;;;;;;;;;;;;;;8.28;97.15;100460.88;6128410;23;19908;-84
2022/04/28 01:35:22;;;;;;;;;;;;;;;8.25;96.64;100464.47;6152408;23;19916;-83
2022/04/28 01:37:47;;;;;;;;;;;;;;;8.20;97.48;100462.94;6154068;23;19909;-84
2022/04/28 01:40:16;;;;;;;;;;;;;;;8.14;97.33;100464.56;6128653;23;19920;-84
2022/04/28 01:42:42;;;;;;;;;;;;;;;8.09;97.78;100473.28;6128372;23;19975;-83
2022/04/28 01:45:08;;;;;;;;;;;;;;;8.05;97.97;100464.25;6128474;23;19916;-84
2022/04/28 01:47:41;;;;;;;;;;;;;;;8.03;97.70;100480.47;6127931;23;19979;-83
2022/04/28 01:50:36;;;;;;;;;;;;;;;7.98;98.14;100480.91;6134721;23;19913;-84
2022/04/28 01:56:20;;;;;;;;;;;;;;;7.92;98.64;100482.53;6142186;23;19912;-84
2022/04/28 01:58:56;;;;;;;;;;;;;;;7.89;98.27;100477.81;6177339;23;19912;-83
2022/04/28 02:01:55;;;;;;;;;;;;;;;7.84;98.38;100472.75;6126734;23;20477;-83
2022/04/28 02:04:20;;;;;;;;;;;;;;;7.82;97.82;100470.38;6152963;23;20007;-83
2022/04/28 02:06:49;;;;;;;;;;;;;;;7.77;98.73;100473.59;6126898;23;19916;-83
2022/04/28 02:09:14;;;;;;;;;;;;;;;7.74;98.45;100468.09;6103606;23;20822;-84
2022/04/28 02:11:40;;;;;;;;;;;;;;;7.75;99.04;100475.19;6127398;23;20515;-83
2022/04/28 02:14:29;;;;;;;;;;;;;;;7.73;98.04;100477.56;6107830;23;19915;-83
2022/04/28 02:17:33;;;;;;;;;;;;;;;7.74;98.28;100468.09;6134384;23;19917;-83
2022/04/28 02:20:01;;;;;;;;;;;;;;;7.71;97.97;100468.91;6102418;23;20334;-83
2022/04/28 02:22:27;;;;;;;;;;;;;;;7.71;97.74;100475.22;6102481;23;20271;-84
2022/04/28 02:24:52;;;;;;;;;;;;;;;7.70;97.34;100473.66;6153255;23;19916;-83
2022/04/28 02:27:18;;;;;;;;;;;;;;;7.71;97.55;100468.91;6127508;23;19946;-84
2022/04/28 02:29:44;;;;;;;;;;;;;;;7.69;97.12;100471.28;6153928;23;19913;-83
2022/04/28 02:32:10;;;;;;;;;;;;;;;7.67;97.28;100476.44;6125484;23;19955;-83
2022/04/28 02:34:36;;;;;;;;;;;;;;;7.67;97.34;100468.16;6152975;23;19912;-83
2022/04/28 02:37:01;;;;;;;;;;;;;;;7.66;96.64;100472.09;6127009;23;19916;-84
2022/04/28 02:39:27;;;;;;;;;;;;;;;7.65;97.31;100474.06;6153427;23;19916;-89
2022/04/28 02:41:55;;;;;;;;;;;;;;;7.65;96.62;100467.75;6126893;23;20018;-89
2022/04/28 02:44:20;;;;;;;;;;;;;;;7.61;97.08;100464.25;6102317;23;20274;-89
2022/04/28 02:46:46;;;;;;;;;;;;;;;7.61;96.79;100472.53;6126454;23;19924;-89
2022/04/28 02:49:14;;;;;;;;;;;;;;;7.60;96.90;100473.75;6126645;23;19908;-90
2022/04/28 02:51:40;;;;;;;;;;;;;;;7.56;97.10;100470.22;6152532;23;20339;-89
2022/04/28 02:54:07;;;;;;;;;;;;;;;7.53;97.39;100471.00;6125502;23;19951;-90
2022/04/28 02:56:37;;;;;;;;;;;;;;;7.52;97.04;100466.72;6127291;23;19947;-90
2022/04/28 02:59:06;;;;;;;;;;;;;;;7.47;97.05;100468.72;6126531;23;19995;-90
2022/04/28 03:01:32;;;;;;;;;;;;;;;7.43;97.71;100465.19;6126588;23;19995;-90
2022/04/28 03:03:57;;;;;;;;;;;;;;;7.43;97.55;100464.41;6153711;23;19920;-89
2022/04/28 03:11:51;;;;;;;;;;;;;;;7.40;96.91;100474.25;6153296;23;19920;-90
2022/04/28 03:14:17;;;;;;;;;;;;;;;7.38;97.14;100471.13;6126137;23;19932;-90
2022/04/28 03:16:43;;;;;;;;;;;;;;;7.36;97.05;100465.22;6152108;23;19916;-90
2022/04/28 03:19:09;;;;;;;;;;;;;;;7.34;96.79;100473.13;6127381;23;19940;-90
2022/04/28 03:21:35;;;;;;;;;;;;;;;7.34;96.86;100469.56;6126907;23;19940;-89
2022/04/28 03:24:02;;;;;;;;;;;;;;;7.33;96.85;100466.03;6124461;23;20245;-90
2022/04/28 03:26:29;;;;;;;;;;;;;;;7.31;97.00;100465.66;6126868;23;19939;-91
2022/04/28 03:28:56;;;;;;;;;;;;;;;7.28;96.66;100460.94;6125608;23;19923;-90
2022/04/28 03:31:22;;;;;;;;;;;;;;;7.30;96.13;100469.59;6126243;23;19917;-90
2022/04/28 03:34:24;;;;;;;;;;;;;;;7.36;95.49;100467.97;6035031;23;19910;-90
2022/04/28 03:36:51;;;;;;;;;;;;;;;7.36;95.37;100465.22;6112134;23;19913;-89
2022/04/28 03:39:20;;;;;;;;;;;;;;;7.36;95.30;100478.25;6126950;23;19912;-90
2022/04/28 03:41:45;;;;;;;;;;;;;;;7.37;94.71;100472.31;6127582;23;19996;-89
2022/04/28 03:44:11;;;;;;;;;;;;;;;7.39;94.52;100481.00;6153539;23;20486;-90
2022/04/28 03:46:37;;;;;;;;;;;;;;;7.37;94.89;100483.34;6127171;23;20243;-91
2022/04/28 03:49:04;;;;;;;;;;;;;;;7.37;94.47;100472.31;6127406;23;20322;-91
2022/04/28 03:51:29;;;;;;;;;;;;;;;7.37;94.83;100490.84;6154851;23;19991;-90
2022/04/28 03:54:00;;;;;;;;;;;;;;;7.37;94.16;100488.88;6126236;23;19995;-90
2022/04/28 03:56:32;;;;;;;;;;;;;;;7.39;94.26;100500.31;6127316;23;19919;-90
2022/04/28 03:59:02;;;;;;;;;;;;;;;7.37;94.54;100497.16;6127067;23;19912;-90
2022/04/28 04:01:28;;;;;;;;;;;;;;;7.36;94.35;100498.34;6126960;23;20246;-90
2022/04/28 04:04:14;;;;;;;;;;;;;;;7.37;93.95;100494.38;6127390;23;20339;-90
2022/04/28 04:06:44;;;;;;;;;;;;;;;7.35;94.07;100496.00;6121965;23;19913;-89
2022/04/28 04:09:47;;;;;;;;;;;;;;;7.35;94.47;100504.28;6123268;23;20325;-89
2022/04/28 04:12:25;;;;;;;;;;;;;;;7.37;94.33;100505.44;6123878;23;20240;-90
2022/04/28 04:15:11;;;;;;;;;;;;;;;7.36;94.14;100503.84;6122689;23;19991;-83
2022/04/28 04:18:01;;;;;;;;;;;;;;;7.38;93.69;100512.53;6125674;23;20419;-84
2022/04/28 04:20:46;;;;;;;;;;;;;;;7.40;93.29;100510.13;6123967;23;19913;-83
2022/04/28 04:23:12;;;;;;;;;;;;;;;7.41;93.48;100516.44;6124129;23;20000;-84
2022/04/28 04:25:37;;;;;;;;;;;;;;;7.43;92.82;100514.88;6123479;23;19913;-84
2022/04/28 04:28:08;;;;;;;;;;;;;;;7.44;93.01;100519.19;6099292;23;20008;-83
2022/04/28 04:33:50;;;;;;;;;;;;;;;7.46;92.99;100522.34;6123930;23;19944;-90
2022/04/28 04:36:16;;;;;;;;;;;;;;;7.48;92.00;100522.69;6122753;23;20236;-84
2022/04/28 04:38:42;;;;;;;;;;;;;;;7.49;91.99;100527.03;6122436;23;19916;-84
2022/04/28 04:41:11;;;;;;;;;;;;;;;7.49;91.73;100529.00;6099047;23;20350;-84
2022/04/28 04:43:37;;;;;;;;;;;;;;;7.47;91.65;100523.91;6099773;23;19916;-83
2022/04/28 04:46:03;;;;;;;;;;;;;;;7.49;91.37;100518.75;6124312;23;19916;-84
2022/04/28 04:48:48;;;;;;;;;;;;;;;7.55;91.07;100537.66;6124287;23;19912;-83
2022/04/28 04:51:30;;;;;;;;;;;;;;;7.63;90.39;100522.63;6121979;23;20391;-84
2022/04/28 04:54:18;;;;;;;;;;;;;;;7.74;89.81;100534.38;6122510;23;19921;-84
2022/04/28 04:56:43;;;;;;;;;;;;;;;7.81;90.23;100532.34;6073870;23;20426;-83
2022/04/28 04:59:09;;;;;;;;;;;;;;;7.92;89.58;100535.03;6119809;23;19916;-83
2022/04/28 05:01:34;;;;;;;;;;;;;;;8.01;89.48;100538.09;6123675;23;19936;-83
2022/04/28 05:04:23;;;;;;;;;;;;;;;8.16;88.44;100539.56;6122652;23;19988;-83
2022/04/28 05:07:09;;;;;;;;;;;;;;;8.27;87.87;100551.28;6135646;23;19966;-83
2022/04/28 05:09:37;;;;;;;;;;;;;;;8.43;87.90;100548.81;6127095;23;19987;-83
2022/04/28 05:12:03;;;;;;;;;;;;;;;8.57;87.21;100552.63;6125822;23;19982;-84
2022/04/28 05:14:51;;;;;;;;;;;;;;;8.70;85.31;100556.41;6106883;23;19987;-83
2022/04/28 05:17:20;;;;;;;;;;;;;;;8.81;84.79;100557.09;6126470;23;19920;-81
2022/04/28 05:20:10;;;;;;;;;;;;;;;8.97;86.27;100554.53;6125802;23;19945;-83
2022/04/28 05:23:05;;;;;;;;;;;;;;;9.15;83.73;100555.09;6098750;23;19913;-83
2022/04/28 05:26:08;;;;;;;;;;;;;;;9.40;83.71;100565.84;6152471;23;20247;-83
2022/04/28 05:28:48;;;;;;;;;;;;;;;9.60;82.71;100563.19;6160579;23;19920;-83
2022/04/28 05:31:38;;;;;;;;;;;;;;;9.78;80.54;100563.72;6152931;23;19916;-84
2022/04/28 05:34:03;;;;;;;;;;;;;;;9.89;81.14;100575.44;6153574;23;19923;-83
2022/04/28 05:36:43;;;;;;;;;;;;;;;9.94;80.24;100572.19;6151203;23;19913;-83
2022/04/28 05:39:08;;;;;;;;;;;;;;;9.97;80.01;100571.34;6151151;23;19995;-84
2022/04/28 05:41:34;;;;;;;;;;;;;;;9.99;79.02;100574.47;6151399;23;19940;-84
2022/04/28 05:46:44;;;;;;;;;;;;;;;10.21;78.40;100574.94;6131544;23;20254;-84
2022/04/28 05:49:09;;;;;;;;;;;;;;;10.32;77.74;100572.00;6125001;23;19912;-84
2022/04/28 05:51:35;;;;;;;;;;;;;;;10.43;77.73;100576.16;6126482;23;19913;-83
2022/04/28 05:54:01;;;;;;;;;;;;;;;10.49;77.32;100570.91;6126352;23;19922;-84
2022/04/28 05:56:28;;;;;;;;;;;;;;;10.70;76.84;100574.06;6125143;23;19975;-84
2022/04/28 05:58:56;;;;;;;;;;;;;;;10.85;76.45;100577.34;6125122;23;19909;-84
2022/04/28 06:01:41;;;;;;;;;;;;;;;11.03;75.57;100580.59;6130464;23;20263;-84
2022/04/28 06:04:09;;;;;;;;;;;;;;;11.16;74.98;100575.94;6139540;23;19912;-84
2022/04/28 06:06:36;;;;;;;;;;;;;;;11.15;73.15;100570.81;6126505;23;20239;-84
2022/04/28 06:09:08;;;;;;;;;;;;;;;11.31;74.92;100579.22;6141841;23;19971;-84
2022/04/28 06:11:34;;;;;;;;;;;;;;;11.48;73.61;100577.28;6126289;23;19916;-84
2022/04/28 06:14:00;;;;;;;;;;;;;;;11.48;73.51;100582.84;6152522;23;19919;-84
2022/04/28 06:16:51;;;;;;;;;;;;;;;11.66;72.37;100574.88;6119693;23;19908;-84
2022/04/28 06:19:25;;;;;;;;;;;;;;;11.74;72.02;100579.09;6104509;23;19912;-84
2022/04/28 06:22:03;;;;;;;;;;;;;;;11.86;71.84;100581.19;6162555;23;19913;-84
2022/04/28 06:24:32;;;;;;;;;;;;;;;11.93;69.93;100591.38;6103005;23;19917;-84
2022/04/28 06:26:57;;;;;;;;;;;;;;;12.02;70.52;100588.75;6126888;23;19916;-84
2022/04/28 06:29:23;;;;;;;;;;;;;;;11.96;70.37;100605.19;6150025;23;19916;-89
2022/04/28 06:31:50;;;;;;;;;;;;;;;11.68;70.11;100581.59;6125955;23;19943;-90
2022/04/28 06:34:33;;;;;;;;;;;;;;;11.31;71.54;100595.09;6152951;23;20243;-90
2022/04/28 06:37:00;;;;;;;;;;;;;;;11.12;73.64;100608.53;6126972;23;19916;-90
2022/04/28 06:39:28;;;;;;;;;;;;;;;10.95;74.05;100601.38;6126931;23;19975;-89
2022/04/28 06:41:54;;;;;;;;;;;;;;;10.88;74.41;100607.03;6153093;23;19916;-90
2022/04/28 06:44:31;;;;;;;;;;;;;;;10.83;72.76;100609.53;6151699;23;19913;-89
2022/04/28 06:47:15;;;;;;;;;;;;;;;10.79;73.11;100604.06;6152685;23;19965;-89
2022/04/28 06:50:09;;;;;;;;;;;;;;;10.81;72.57;100607.16;6153136;23;19924;-89
2022/04/28 06:52:55;;;;;;;;;;;;;;;11.15;72.99;100609.69;6128265;23;20254;-89
2022/04/28 06:55:32;;;;;;;;;;;;;;;11.52;71.02;100605.75;6127999;23;20321;-89
2022/04/28 06:57:57;;;;;;;;;;;;;;;11.91;70.19;100613.25;6149743;23;19912;-90
2022/04/28 07:00:27;;;;;;;;;;;;;;;12.34;69.44;100591.53;6127411;23;19913;-90
2022/04/28 07:02:54;;;;;;;;;;;;;;;12.34;67.73;100610.22;6127481;23;19967;-89
2022/04/28 07:05:20;;;;;;;;;;;;;;;12.30;69.53;100618.66;6127393;23;20250;-89
2022/04/28 07:07:45;;;;;;;;;;;;;;;12.26;68.98;100620.75;6122321;23;19913;-89
2022/04/28 07:10:15;;;;;;;;;;;;;;;12.09;68.06;100614.38;6119748;23;20330;-89
2022/04/28 07:12:45;;;;;;;;;;;;;;;12.05;68.17;100622.03;6122453;23;19912;-89
2022/04/28 07:15:29;;;;;;;;;;;;;;;12.02;68.11;100619.34;6124037;23;20379;-88
2022/04/28 07:18:17;;;;;;;;;;;;;;;12.01;68.54;100621.34;6122385;23;19917;-89
2022/04/28 07:20:46;;;;;;;;;;;;;;;12.03;68.76;100618.91;6120700;23;19960;-89
2022/04/28 07:23:12;;;;;;;;;;;;;;;12.14;67.23;100627.00;6121197;23;19923;-88
2022/04/28 07:25:37;;;;;;;;;;;;;;;12.18;67.55;100630.47;6122376;23;19944;-89
2022/04/28 07:28:03;;;;;;;;;;;;;;;12.25;68.97;100624.78;6122359;23;20295;-88
2022/04/28 07:30:57;;;;;;;;;;;;;;;12.37;68.05;100628.84;6095773;23;19933;-89
2022/04/28 07:34:01;;;;;;;;;;;;;;;12.55;68.25;100631.97;6119983;23;19917;-90
2022/04/28 07:36:50;;;;;;;;;;;;;;;12.55;67.51;100631.97;6106877;23;19913;-88
2022/04/28 07:39:27;;;;;;;;;;;;;;;12.64;66.26;100629.34;6123708;23;19924;-89
2022/04/28 07:42:28;;;;;;;;;;;;;;;12.74;65.79;100638.66;6122755;23;19913;-89
2022/04/28 07:44:53;;;;;;;;;;;;;;;12.82;66.80;100640.03;6120957;23;19964;-88
2022/04/28 07:47:19;;;;;;;;;;;;;;;12.95;65.19;100638.84;6120256;23;19909;-87
2022/04/28 07:49:56;;;;;;;;;;;;;;;12.99;65.69;100633.97;6122642;23;20235;-88
2022/04/28 07:52:22;;;;;;;;;;;;;;;13.03;65.98;100639.44;6121905;23;19921;-87
2022/04/28 07:54:49;;;;;;;;;;;;;;;13.10;66.97;100633.72;6122602;23;20475;-87
2022/04/28 07:57:18;;;;;;;;;;;;;;;13.40;66.70;100632.47;6122069;23;19948;-89
2022/04/28 07:59:44;;;;;;;;;;;;;;;13.97;65.39;100648.28;6122372;23;19974;-89
2022/04/28 08:02:14;;;;;;;;;;;;;;;14.50;63.90;100638.25;6121715;23;19909;-89
2022/04/28 08:04:43;;;;;;;;;;;;;;;14.89;60.05;100642.50;6099774;23;20209;-89
2022/04/28 08:07:09;;;;;;;;;;;;;;;15.27;59.45;100637.53;6121947;23;19959;-89
2022/04/28 08:09:36;;;;;;;;;;;;;;;15.50;59.98;100636.31;6122408;23;19912;-90
2022/04/28 08:12:02;;;;;;;;;;;;;;;15.78;58.58;100631.66;6122235;23;19916;-89
2022/04/28 08:14:28;;;;;;;;;;;;;;;16.24;58.58;100638.25;6122187;23;19919;-89
2022/04/28 08:16:55;;;;;;;;;;;;;;;16.48;56.22;100636.44;6122467;23;19913;-88
2022/04/28 08:19:21;;;;;;;;;;;;;;;16.41;53.70;100641.56;6122120;23;19940;-89
2022/04/28 08:21:53;;;;;;;;;;;;;;;16.32;54.16;100633.91;6122517;23;19955;-89
2022/04/28 08:24:19;;;;;;;;;;;;;;;16.45;52.51;100648.59;6122254;23;19913;-83
2022/04/28 08:26:46;;;;;;;;;;;;;;;16.35;52.15;100644.19;6122704;23;19937;-83
2022/04/28 08:29:11;;;;;;;;;;;;;;;16.44;51.48;100640.63;6097170;23;19913;-83
2022/04/28 08:31:44;;;;;;;;;;;;;;;16.48;51.14;100644.84;6122046;23;20383;-84
2022/04/28 08:34:13;;;;;;;;;;;;;;;16.54;51.92;100645.78;6121464;23;19916;-83
2022/04/28 08:36:39;;;;;;;;;;;;;;;16.49;49.75;100645.63;6122421;23;19936;-83
2022/04/28 08:39:04;;;;;;;;;;;;;;;16.62;51.44;100647.06;6097904;23;19920;-83
2022/04/28 08:41:32;;;;;;;;;;;;;;;17.04;52.07;100636.09;6122469;23;20281;-83
2022/04/28 08:44:17;;;;;;;;;;;;;;;17.29;49.80;100637.78;6123104;23;20342;-83
2022/04/28 08:46:53;;;;;;;;;;;;;;;17.54;50.36;100645.84;6122028;23;19912;-83
2022/04/28 08:49:24;;;;;;;;;;;;;;;17.74;46.26;100638.97;6121277;23;20470;-83
2022/04/28 08:52:02;;;;;;;;;;;;;;;17.82;48.01;100645.81;6122414;23;19917;-83
2022/04/28 08:54:29;;;;;;;;;;;;;;;18.07;46.37;100639.81;6120253;23;19913;-83
2022/04/28 08:56:55;;;;;;;;;;;;;;;17.97;47.10;100629.84;6118210;23;19912;-83
2022/04/28 08:59:21;;;;;;;;;;;;;;;18.14;47.07;100645.06;6096572;23;20287;-83
2022/04/28 09:01:46;;;;;;;;;;;;;;;18.11;46.58;100651.66;6121366;23;19913;-83
2022/04/28 09:04:30;;;;;;;;;;;;;;;18.18;44.67;100640.06;6123451;23;19962;-83
2022/04/28 09:07:11;;;;;;;;;;;;;;;17.86;43.71;100652.03;6121255;23;19916;-83
2022/04/28 09:09:42;;;;;;;;;;;;;;;17.76;45.63;100651.28;6125650;23;19927;-82
2022/04/28 09:12:26;;;;;;;;;;;;;;;17.92;44.29;100639.69;6122483;23;19924;-82
2022/04/28 09:15:12;;;;;;;;;;;;;;;18.04;44.69;100640.75;6122291;23;19913;-82
2022/04/28 09:17:41;;;;;;;;;;;;;;;18.26;43.94;100646.91;6121114;23;19941;-83
2022/04/28 09:20:13;;;;;;;;;;;;;;;17.78;43.15;100639.59;6121678;23;19912;-87
2022/04/28 09:22:43;;;;;;;;;;;;;;;17.81;44.21;100644.25;6121909;23;19932;-89
2022/04/28 09:25:10;;;;;;;;;;;;;;;17.81;45.44;100642.22;6118418;23;19955;-88
2022/04/28 09:27:38;;;;;;;;;;;;;;;18.07;43.87;100640.59;6121869;23;20350;-88
2022/04/28 09:30:04;;;;;;;;;;;;;;;18.34;43.64;100650.91;6120438;23;19916;-88
2022/04/28 09:32:32;;;;;;;;;;;;;;;18.47;43.10;100651.47;6121388;23;20278;-88
2022/04/28 09:35:04;;;;;;;;;;;;;;;18.63;42.93;100642.66;6123235;23;19908;-90
2022/04/28 09:38:08;;;;;;;;;;;;;;;18.86;42.94;100645.94;6114581;23;19932;-89
2022/04/28 09:43:19;;;;;;;;;;;;;;;18.99;43.33;100657.72;6122558;23;19923;-88
2022/04/28 09:45:44;;;;;;;;;;;;;;;19.02;42.23;100656.75;6123219;23;19944;-89
2022/04/28 09:48:10;;;;;;;;;;;;;;;19.28;42.40;100663.44;6123422;23;19916;-88
2022/04/28 09:50:47;;;;;;;;;;;;;;;18.94;39.98;100664.00;6123141;23;19916;-88
2022/04/28 09:53:25;;;;;;;;;;;;;;;18.95;40.44;100659.94;6127063;23;19971;-88
2022/04/28 09:56:09;;;;;;;;;;;;;;;19.25;40.98;100658.75;6121317;23;19969;-88
2022/04/28 09:58:53;;;;;;;;;;;;;;;19.15;41.05;100654.47;6120396;23;19913;-88
2022/04/28 10:01:19;;;;;;;;;;;;;;;19.22;40.84;100656.91;6099059;23;19920;-87
2022/04/28 10:03:44;;;;;;;;;;;;;;;19.00;39.57;100657.25;6122441;23;20036;-88
2022/04/28 10:06:17;;;;;;;;;;;;;;;18.98;39.09;100661.78;6121563;23;19912;-90
2022/04/28 10:08:45;;;;;;;;;;;;;;;19.07;39.12;100661.72;6152409;23;19920;-88
2022/04/28 10:11:14;;;;;;;;;;;;;;;19.23;39.70;100661.28;6153134;23;19920;-88
2022/04/28 10:13:40;;;;;;;;;;;;;;;19.23;39.07;100666.91;6127193;23;19952;-88
2022/04/28 10:16:07;;;;;;;;;;;;;;;19.00;37.76;100664.91;6126217;23;19967;-88
2022/04/28 10:18:33;;;;;;;;;;;;;;;18.98;38.44;100661.78;6125767;23;19970;-82
2022/04/28 10:21:00;;;;;;;;;;;;;;;19.26;38.40;100663.13;6102632;23;19939;-83
2022/04/28 10:32:45;;;;;;;;;;;;;;;19.41;38.86;100672.34;6151621;23;19913;-82
2022/04/28 10:35:10;;;;;;;;;;;;;;;19.65;36.36;100669.53;6151623;23;20006;-83
2022/04/28 10:37:41;;;;;;;;;;;;;;;19.51;36.43;100676.69;6125544;23;19931;-82
2022/04/28 10:40:08;;;;;;;;;;;;;;;19.69;38.66;100674.94;6125768;23;20286;-82
2022/04/28 10:42:33;;;;;;;;;;;;;;;20.07;38.22;100677.66;6125573;23;19944;-82
2022/04/28 10:45:00;;;;;;;;;;;;;;;20.20;36.37;100666.84;6151786;23;19909;-82
2022/04/28 10:47:35;;;;;;;;;;;;;;;19.70;36.46;100676.47;6150037;23;19917;-82
2022/04/28 10:50:00;;;;;;;;;;;;;;;19.53;35.45;100679.78;6148073;23;19912;-82
2022/04/28 10:52:26;;;;;;;;;;;;;;;19.59;35.47;100682.69;6150493;23;19928;-83
2022/04/28 10:54:58;;;;;;;;;;;;;;;19.62;35.75;100690.16;6098143;23;20446;-82
2022/04/28 10:57:31;;;;;;;;;;;;;;;19.25;34.93;100684.06;6122094;23;19991;-82
2022/04/28 10:59:56;;;;;;;;;;;;;;;19.17;35.99;100674.44;6147753;23;19980;-82
2022/04/28 11:02:23;;;;;;;;;;;;;;;19.33;38.79;100690.84;6148707;23;19944;-82
2022/04/28 11:05:03;;;;;;;;;;;;;;;19.51;34.96;100676.69;6121588;23;19912;-83
2022/04/28 11:07:29;;;;;;;;;;;;;;;19.21;33.64;100677.84;6148188;23;19919;-82
2022/04/28 11:10:01;;;;;;;;;;;;;;;19.42;34.37;100678.75;6149422;23;19920;-81
2022/04/28 11:12:35;;;;;;;;;;;;;;;19.88;35.25;100684.75;6123899;23;19912;-82
2022/04/28 11:15:03;;;;;;;;;;;;;;;20.16;34.85;100682.41;6152283;23;19991;-82
2022/04/28 11:17:29;;;;;;;;;;;;;;;20.22;32.78;100678.41;6126533;23;19908;-82
2022/04/28 11:19:55;;;;;;;;;;;;;;;20.41;35.23;100673.34;6125309;23;20345;-82
2022/04/28 11:22:21;;;;;;;;;;;;;;;20.21;33.05;100676.88;6152180;23;19944;-81
2022/04/28 11:24:47;;;;;;;;;;;;;;;20.44;34.07;100675.19;6152345;23;19944;-82
2022/04/28 11:27:34;;;;;;;;;;;;;;;20.34;34.04;100691.41;6151710;23;19912;-82
2022/04/28 11:30:04;;;;;;;;;;;;;;;20.12;33.51;100687.44;6126052;23;20310;-82
2022/04/28 11:32:30;;;;;;;;;;;;;;;20.22;33.79;100684.03;6152515;23;19916;-81
2022/04/28 11:34:59;;;;;;;;;;;;;;;20.41;33.73;100676.94;6151708;23;20342;-89
2022/04/28 11:37:25;;;;;;;;;;;;;;;20.37;32.80;100690.47;6126775;23;19916;-88
2022/04/28 11:39:54;;;;;;;;;;;;;;;20.50;32.79;100683.72;6152261;23;19919;-88
2022/04/28 11:42:25;;;;;;;;;;;;;;;20.51;34.80;100688.84;6152405;23;19912;-89
2022/04/28 11:44:59;;;;;;;;;;;;;;;20.77;33.89;100677.69;6152292;23;19978;-88
2022/04/28 11:47:25;;;;;;;;;;;;;;;20.80;31.91;100677.50;6152808;23;19940;-89
2022/04/28 11:49:57;;;;;;;;;;;;;;;20.85;32.73;100681.66;6152900;23;19917;-88
2022/04/28 11:52:26;;;;;;;;;;;;;;;20.75;33.19;100691.50;6153443;23;19927;-89
2022/04/28 11:54:59;;;;;;;;;;;;;;;20.54;32.82;100681.47;6127172;23;19912;-82
2022/04/28 11:57:25;;;;;;;;;;;;;;;20.44;32.65;100690.06;6127374;23;20255;-82
2022/04/28 11:59:50;;;;;;;;;;;;;;;20.79;34.06;100689.25;6127340;23;20339;-82
2022/04/28 12:02:25;;;;;;;;;;;;;;;20.95;31.96;100677.41;6152514;23;19975;-82
2022/04/28 12:04:51;;;;;;;;;;;;;;;20.86;31.87;100681.19;6150774;23;19931;-82
2022/04/28 12:07:20;;;;;;;;;;;;;;;20.72;32.13;100690.44;6153095;23;19913;-82
2022/04/28 12:15:14;;;;;;;;;;;;;;;20.75;32.81;100691.50;6106046;23;19958;-82
2022/04/28 12:21:09;;;;;;;;;;;;;;;20.56;31.06;100687.38;6148596;23;19912;-82
2022/04/28 12:23:39;;;;;;;;;;;;;;;20.57;30.55;100691.78;6115694;23;19912;-82
2022/04/28 12:26:06;;;;;;;;;;;;;;;20.54;31.82;100689.94;6153431;23;19915;-82
2022/04/28 12:28:35;;;;;;;;;;;;;;;20.45;30.19;100680.34;6153054;23;19959;-82
2022/04/28 12:31:02;;;;;;;;;;;;;;;20.58;31.60;100693.31;6153397;23;20349;-81
2022/04/28 12:33:27;;;;;;;;;;;;;;;20.84;30.55;100688.56;6127815;23;19939;-82
2022/04/28 12:35:56;;;;;;;;;;;;;;;20.68;29.01;100686.28;6128227;23;19912;-82
2022/04/28 12:38:28;;;;;;;;;;;;;;;20.68;29.18;100703.19;6128452;23;19947;-82
2022/04/28 12:40:54;;;;;;;;;;;;;;;20.79;30.44;100687.22;6128894;23;19992;-82
2022/04/28 12:43:37;;;;;;;;;;;;;;;20.83;30.49;100687.78;6154836;23;19936;-82
2022/04/28 12:46:03;;;;;;;;;;;;;;;21.08;30.68;100697.59;6154511;23;19916;-82
2022/04/28 12:48:37;;;;;;;;;;;;;;;20.78;30.51;100690.53;6154837;23;20019;-81
2022/04/28 12:51:07;;;;;;;;;;;;;;;20.92;30.48;100684.06;6155188;23;20043;-82
2022/04/28 12:53:33;;;;;;;;;;;;;;;21.02;29.93;100676.22;6154775;23;19971;-82
2022/04/28 12:56:06;;;;;;;;;;;;;;;20.71;30.38;100683.25;6155259;23;19916;-82
2022/04/28 12:58:35;;;;;;;;;;;;;;;20.83;30.82;100698.28;6128643;23;20176;-82
2022/04/28 13:01:00;;;;;;;;;;;;;;;20.82;30.64;100685.47;6154890;23;19936;-82
2022/04/28 13:03:27;;;;;;;;;;;;;;;20.95;30.73;100669.72;6154521;23;19920;-82
2022/04/28 13:05:53;;;;;;;;;;;;;;;21.01;31.97;100675.47;6155205;23;19917;-82
2022/04/28 13:08:18;;;;;;;;;;;;;;;20.70;30.40;100689.41;6128299;23;19939;-82
2022/04/28 13:10:44;;;;;;;;;;;;;;;20.63;29.38;100684.16;6154840;23;19913;-87
2022/04/28 13:13:10;;;;;;;;;;;;;;;20.44;30.51;100669.53;6154925;23;19955;-87
2022/04/28 13:15:35;;;;;;;;;;;;;;;20.36;29.83;100700.16;6154628;23;19947;-88
2022/04/28 13:18:00;;;;;;;;;;;;;;;20.23;29.81;100685.59;6154793;23;19916;-87
2022/04/28 13:20:26;;;;;;;;;;;;;;;20.33;30.62;100681.44;6154677;23;19951;-87
2022/04/28 13:22:51;;;;;;;;;;;;;;;20.41;30.44;100674.13;6153244;23;19999;-87
2022/04/28 13:25:17;;;;;;;;;;;;;;;20.60;29.74;100679.50;6154129;23;19939;-88
2022/04/28 13:27:43;;;;;;;;;;;;;;;20.48;29.08;100679.34;6155003;23;20315;-88
2022/04/28 13:30:08;;;;;;;;;;;;;;;20.48;30.08;100676.53;6142643;23;19995;-88
2022/04/28 13:32:36;;;;;;;;;;;;;;;20.51;29.16;100669.13;6154585;23;19944;-87
2022/04/28 13:35:01;;;;;;;;;;;;;;;20.75;28.11;100686.66;6154591;23;20456;-87
2022/04/28 13:37:27;;;;;;;;;;;;;;;20.65;28.60;100678.81;6154248;23;19920;-88
2022/04/28 13:39:52;;;;;;;;;;;;;;;20.44;28.67;100678.00;6153154;23;19970;-87